Portada
METAR-TAF:

METAR-TAF

Aeropuertos :

Aeropuerto Internacional de Pekín-Capital

Pekín, China

latitud: 39-56N, longitud: 116-17E, altitud: 55 m

Observación

El informe se hizo hace 22 minutos, a las 13:30 UTC
Viento 6 kt del norte-noroeste, variando entre oeste-noroeste y norte
Temperatura 1°C
Humedad 19%
Presión 1025 hPa
Visibilidad 10 km o más
sin nubes por debajo de 1500 m y sin presencia de cumulonimbus.

METAR: ZBAA 181330Z 33003MPS 290V360 CAVOK 01/M20 Q1025 NOSIG

Hora: 21:52 (13:52 UTC)

Pronóstico

El informe se hizo hace 4 horas y 32 minutos, a las 09:20 UTC
Pronóstico válido del 18 a las 12 UTC al 19 a las 12 UTC
Viento 8 kt del norte-noroeste
Visibilidad: 5000 m
calima

TAF: ZBAA 180920Z 1812/1912 33004MPS 5000 HZ NSC TX04/1907Z TNM04/21Z

Observaciones y pronósticos meteorológicos de más de 4000 aeropuertos (mensajes METAR y TAF).

Los puntos amarillos y rojos representan las estaciones disponibles.

Ponga el ratón en el punto deseado para ver el nombre de la estación.

Haga clic para ver las observaciones y los pronósticos meteorológicos.

Para cambiar el mapa : haga clic en los botones verdes con una cruz de color negro para hacer un zoom, en el botón verde con un guión para alejar o en las flechas verdes para mapas adyacentes.


METAR-TAF: